createdAt,value
2023-01-20T00:02:22.562Z,19.63
2023-01-20T00:05:26.557Z,25.17
2023-01-20T00:08:29.223Z,17.27
2023-01-20T00:11:32.092Z,22.07
2023-01-20T00:14:34.688Z,18.57
2023-01-20T00:17:37.323Z,18.27
2023-01-20T00:20:41.287Z,20.13
2023-01-20T00:23:44.174Z,19.77
2023-01-20T00:26:46.761Z,19.07
2023-01-20T00:29:49.367Z,22.20
2023-01-20T00:32:52.188Z,19.53
2023-01-20T00:35:56.103Z,21.53
2023-01-20T00:38:58.789Z,23.47
2023-01-20T00:42:01.407Z,20.83
2023-01-20T00:45:04.277Z,24.77
2023-01-20T00:48:07.472Z,22.53
2023-01-20T00:51:12.185Z,29.20
2023-01-20T00:54:14.768Z,25.40
2023-01-20T00:57:17.356Z,24.57
2023-01-20T01:00:20.438Z,26.67
2023-01-20T01:03:23.507Z,26.80
2023-01-20T01:06:27.441Z,33.63
2023-01-20T01:09:30.023Z,30.50
2023-01-20T01:12:32.688Z,38.70
2023-01-20T01:15:35.428Z,31.20
2023-01-20T01:18:38.085Z,37.57
2023-01-20T01:21:42.002Z,42.20
2023-01-20T01:24:44.642Z,45.27
2023-01-20T01:27:47.223Z,39.93
2023-01-20T01:30:49.854Z,37.70
2023-01-20T01:33:52.451Z,39.63
2023-01-20T01:36:56.400Z,37.17
2023-01-20T01:39:58.978Z,41.07
2023-01-20T01:43:01.566Z,36.50
2023-01-20T01:46:05.193Z,37.90
2023-01-20T01:49:14.164Z,39.13
2023-01-20T01:52:20.809Z,41.37
2023-01-20T01:55:28.466Z,42.83
2023-01-20T01:58:34.748Z,39.03
2023-01-20T02:01:40.499Z,46.17
2023-01-20T02:04:43.199Z,42.20
2023-01-20T02:07:48.776Z,38.50
2023-01-20T02:10:51.371Z,39.53
2023-01-20T02:13:54.140Z,40.93
2023-01-20T02:17:05.270Z,45.43
2023-01-20T02:20:37.255Z,44.27
2023-01-20T02:24:03.784Z,41.17
2023-01-20T02:27:12.155Z,39.50
2023-01-20T02:30:55.076Z,43.73
2023-01-20T02:34:03.028Z,45.13
2023-01-20T02:37:12.070Z,41.37
2023-01-20T02:40:26.800Z,45.03
2023-01-20T02:43:35.866Z,40.17
2023-01-20T02:46:45.863Z,45.33
2023-01-20T02:49:55.863Z,48.00
2023-01-20T02:53:02.414Z,48.43
2023-01-20T02:56:05.714Z,45.40
2023-01-20T02:59:12.267Z,43.63
2023-01-20T03:02:18.640Z,42.67
2023-01-20T03:05:28.070Z,48.77
2023-01-20T03:08:33.289Z,54.03
2023-01-20T03:11:41.531Z,51.87
2023-01-20T03:14:44.291Z,46.63
2023-01-20T03:17:46.855Z,52.37
2023-01-20T03:20:50.870Z,52.13
2023-01-20T03:23:55.402Z,50.47
2023-01-20T03:26:58.956Z,46.60
2023-01-20T03:30:01.549Z,47.40
2023-01-20T03:33:04.971Z,46.63
2023-01-20T03:36:10.520Z,51.50
2023-01-20T03:39:13.504Z,49.20
2023-01-20T03:42:20.993Z,44.60
2023-01-20T03:45:32.106Z,45.30
2023-01-20T03:48:41.664Z,45.90
2023-01-20T03:51:55.748Z,45.40
2023-01-20T03:55:02.717Z,52.53
2023-01-20T03:58:08.279Z,49.63
2023-01-20T04:01:18.974Z,51.20
2023-01-20T04:04:22.567Z,50.30
2023-01-20T04:07:27.698Z,50.70
2023-01-20T04:10:32.817Z,52.93
2023-01-20T04:13:36.132Z,50.00
2023-01-20T04:16:39.267Z,55.20
2023-01-20T04:19:41.857Z,55.13
2023-01-20T04:22:50.029Z,47.50
2023-01-20T04:25:52.609Z,46.83
2023-01-20T04:28:55.198Z,49.67
2023-01-20T04:32:01.073Z,57.27
2023-01-20T04:35:03.739Z,49.90
2023-01-20T04:38:07.693Z,44.77
2023-01-20T04:41:12.225Z,43.63
2023-01-20T04:44:14.836Z,43.70
2023-01-20T04:47:17.419Z,43.33
2023-01-20T04:50:20.007Z,45.00
2023-01-20T04:53:23.927Z,45.77
2023-01-20T04:56:27.347Z,46.53
2023-01-20T04:59:29.933Z,43.70
2023-01-20T05:02:32.751Z,43.53
2023-01-20T05:05:35.460Z,46.93
2023-01-20T05:08:39.460Z,37.33
2023-01-20T05:11:42.553Z,44.73
2023-01-20T05:14:45.156Z,44.27
2023-01-20T05:17:47.738Z,42.17
2023-01-20T05:20:50.960Z,58.83
2023-01-20T05:23:55.729Z,51.73
2023-01-20T05:27:01.257Z,45.00
2023-01-20T05:30:03.941Z,40.20
2023-01-20T05:33:06.567Z,43.90
2023-01-20T05:36:10.452Z,42.60
2023-01-20T05:39:14.410Z,40.20
2023-01-20T05:42:16.993Z,37.67
2023-01-20T05:45:19.620Z,39.63
2023-01-20T05:48:22.770Z,39.53
2023-01-20T05:51:25.375Z,41.10
2023-01-20T05:54:29.333Z,44.97
2023-01-20T05:57:31.907Z,40.57
2023-01-20T06:00:34.844Z,33.93
2023-01-20T06:03:37.784Z,43.30
2023-01-20T06:06:40.422Z,36.93
2023-01-20T06:09:44.390Z,39.30
2023-01-20T06:12:52.958Z,35.57
2023-01-20T06:15:56.648Z,34.77
2023-01-20T06:18:59.282Z,42.57
2023-01-20T06:22:01.885Z,39.13
2023-01-20T06:25:06.476Z,37.43
2023-01-20T06:28:09.445Z,39.23
2023-01-20T06:31:14.269Z,38.47
2023-01-20T06:34:16.945Z,39.30
2023-01-20T06:37:19.631Z,43.33
2023-01-20T06:40:23.570Z,42.07
2023-01-20T06:43:26.266Z,34.57
2023-01-20T06:46:28.973Z,39.10
2023-01-20T06:49:33.459Z,38.47
2023-01-20T06:52:36.073Z,39.37
2023-01-20T06:55:39.995Z,41.70
2023-01-20T06:58:42.691Z,35.63
2023-01-20T07:01:45.464Z,45.83
2023-01-20T07:04:48.083Z,41.17
2023-01-20T07:07:50.652Z,34.23
2023-01-20T07:10:54.663Z,39.13
2023-01-20T07:13:57.236Z,36.97
2023-01-20T07:16:59.820Z,36.43
2023-01-20T07:20:02.445Z,37.53
2023-01-20T07:23:05.915Z,48.57
2023-01-20T07:26:11.986Z,41.73
2023-01-20T07:29:16.606Z,36.33
2023-01-20T07:32:20.395Z,36.67
2023-01-20T07:35:23.047Z,35.07
2023-01-20T07:38:26.027Z,38.23
2023-01-20T07:41:29.953Z,33.17
2023-01-20T07:44:33.300Z,35.23
2023-01-20T07:47:35.975Z,44.50
2023-01-20T07:50:38.731Z,45.70
2023-01-20T07:53:43.517Z,42.93
2023-01-20T07:56:47.491Z,40.40
2023-01-20T07:59:50.095Z,45.43
2023-01-20T08:02:52.703Z,46.90
2023-01-20T08:05:55.337Z,34.33
2023-01-20T08:09:01.723Z,44.20
2023-01-20T08:12:06.456Z,39.70
2023-01-20T08:15:10.538Z,40.83
2023-01-20T08:18:13.201Z,36.03
2023-01-20T08:21:21.523Z,39.47
2023-01-20T08:24:24.163Z,42.30
2023-01-20T08:27:28.123Z,37.40
2023-01-20T08:30:30.817Z,45.57
2023-01-20T08:33:33.512Z,42.10
2023-01-20T08:36:39.833Z,37.87
2023-01-20T08:39:42.447Z,36.93
2023-01-20T08:42:46.414Z,38.47
2023-01-20T08:45:49.034Z,37.00
2023-01-20T08:48:51.922Z,37.63
2023-01-20T08:51:55.344Z,35.30
2023-01-20T08:54:58.707Z,38.60
2023-01-20T08:58:03.349Z,37.87
2023-01-20T09:01:09.756Z,39.83
2023-01-20T09:04:13.128Z,35.10
2023-01-20T09:07:15.730Z,45.57
2023-01-20T09:10:19.342Z,36.20
2023-01-20T09:13:23.261Z,38.77
2023-01-20T09:16:25.854Z,36.17
2023-01-20T09:19:28.453Z,32.83
2023-01-20T09:22:31.093Z,35.23
2023-01-20T09:25:33.702Z,32.77
2023-01-20T09:28:37.678Z,33.57
2023-01-20T09:31:44.321Z,36.30
2023-01-20T09:34:47.209Z,34.50
2023-01-20T09:38:07.619Z,33.77
2023-01-20T09:41:36.048Z,38.70
2023-01-20T09:44:47.958Z,40.37
2023-01-20T09:47:50.785Z,33.17
2023-01-20T09:51:20.211Z,33.40
2023-01-20T09:54:27.345Z,36.10
2023-01-20T09:57:34.810Z,35.07
2023-01-20T10:00:41.522Z,42.10
2023-01-20T10:03:52.273Z,36.60
2023-01-20T10:06:58.951Z,35.33
2023-01-20T10:10:10.525Z,32.30
2023-01-20T10:13:18.146Z,35.43
2023-01-20T10:16:30.054Z,39.93
2023-01-20T10:19:38.359Z,33.70
2023-01-20T10:22:46.573Z,34.33
2023-01-20T10:25:53.231Z,36.07
2023-01-20T10:29:00.221Z,34.93
2023-01-20T10:32:07.339Z,36.03
2023-01-20T10:35:17.194Z,34.57
2023-01-20T10:38:27.532Z,35.17
2023-01-20T10:41:37.263Z,33.50
2023-01-20T10:44:40.281Z,31.07
2023-01-20T10:47:55.942Z,33.37
2023-01-20T10:51:07.431Z,31.70
2023-01-20T10:54:23.355Z,32.23
2023-01-20T10:57:26.967Z,30.23
2023-01-20T11:00:32.484Z,32.77
2023-01-20T11:03:40.658Z,34.67
2023-01-20T11:06:43.303Z,28.93
2023-01-20T11:09:48.670Z,32.20
2023-01-20T11:12:53.618Z,32.57
2023-01-20T11:16:00.569Z,28.83
2023-01-20T11:19:05.910Z,26.57
2023-01-20T11:22:13.148Z,28.47
2023-01-20T11:25:25.504Z,28.00
2023-01-20T11:28:32.857Z,28.50
2023-01-20T11:31:41.213Z,32.43
2023-01-20T11:34:50.126Z,25.23
2023-01-20T11:37:53.388Z,25.13
2023-01-20T11:40:57.285Z,29.80
2023-01-20T11:44:01.264Z,25.10
2023-01-20T11:47:17.721Z,26.50
2023-01-20T11:50:33.069Z,27.30
2023-01-20T11:53:36.419Z,25.07
2023-01-20T11:56:42.603Z,26.43
2023-01-20T11:59:49.695Z,23.00
2023-01-20T12:02:58.601Z,25.97
2023-01-20T12:06:08.207Z,23.67
2023-01-20T12:09:14.395Z,25.37
2023-01-20T12:12:28.493Z,25.70
2023-01-20T12:15:33.287Z,28.43
2023-01-20T12:18:53.344Z,26.67
2023-01-20T12:22:14.256Z,25.20
2023-01-20T12:25:21.363Z,24.00
2023-01-20T12:28:29.267Z,23.77
2023-01-20T12:31:32.936Z,23.70
2023-01-20T12:34:35.701Z,24.73
2023-01-20T12:37:45.940Z,27.50
2023-01-20T12:40:52.347Z,24.50
2023-01-20T12:44:03.022Z,25.17
2023-01-20T12:47:19.457Z,25.73
2023-01-20T12:50:33.979Z,23.00
2023-01-20T12:54:03.194Z,25.37
2023-01-20T12:57:16.739Z,25.13
2023-01-20T13:00:34.479Z,25.50
2023-01-20T13:04:26.889Z,25.13
2023-01-20T13:07:41.378Z,26.03
2023-01-20T13:11:04.373Z,24.00
2023-01-20T13:14:13.471Z,22.10
2023-01-20T13:17:25.782Z,24.23
2023-01-20T13:20:31.004Z,23.83
2023-01-20T13:23:36.679Z,24.07
2023-01-20T13:26:40.740Z,23.00
2023-01-20T13:29:53.747Z,31.43
2023-01-20T13:33:05.925Z,24.67
2023-01-20T13:36:17.260Z,23.03
2023-01-20T13:39:42.097Z,22.60
2023-01-20T13:42:53.315Z,23.27
2023-01-20T13:46:52.595Z,23.07
2023-01-20T13:49:55.355Z,22.57
2023-01-20T13:53:14.879Z,19.57
2023-01-20T13:56:26.071Z,22.33
2023-01-20T13:59:30.036Z,23.73
2023-01-20T14:02:37.308Z,19.70
2023-01-20T14:05:40.660Z,20.37
2023-01-20T14:08:45.592Z,21.80
2023-01-20T14:11:50.438Z,21.93
2023-01-20T14:14:54.601Z,26.83
2023-01-20T14:17:59.602Z,22.07
2023-01-20T14:21:05.492Z,24.53
2023-01-20T14:24:29.160Z,23.13
2023-01-20T14:27:37.348Z,21.50
2023-01-20T14:30:41.386Z,23.90
2023-01-20T14:33:45.880Z,25.33
2023-01-20T14:36:48.769Z,24.30
2023-01-20T14:39:52.102Z,24.47
2023-01-20T14:42:59.370Z,26.23
2023-01-20T14:46:03.570Z,21.43
2023-01-20T14:49:06.400Z,22.97
2023-01-20T14:52:12.423Z,21.80
2023-01-20T14:55:32.327Z,21.83
2023-01-20T14:58:36.319Z,22.80
2023-01-20T15:01:40.899Z,24.40
2023-01-20T15:04:44.643Z,33.70
2023-01-20T15:07:47.411Z,22.45
2023-01-20T15:11:12.453Z,21.77
2023-01-20T15:14:15.019Z,23.50
2023-01-20T15:17:20.271Z,23.67
2023-01-20T15:20:31.611Z,20.73
2023-01-20T15:23:38.073Z,20.57
2023-01-20T15:26:40.743Z,18.03
2023-01-20T15:29:43.568Z,21.73
2023-01-20T15:32:48.185Z,21.80
2023-01-20T15:35:59.115Z,20.87
2023-01-20T15:39:01.682Z,24.37
2023-01-20T15:42:04.946Z,19.37
2023-01-20T15:45:08.487Z,21.63
2023-01-20T15:48:18.153Z,19.17
2023-01-20T15:51:21.372Z,20.77
2023-01-20T15:54:23.956Z,21.97
2023-01-20T15:57:26.658Z,22.50
2023-01-20T16:00:30.697Z,21.70
2023-01-20T16:03:35.453Z,28.63
2023-01-20T16:06:38.844Z,23.77
2023-01-20T16:09:41.498Z,22.23
2023-01-20T16:12:44.438Z,23.30
2023-01-20T16:15:47.122Z,25.53
2023-01-20T16:18:51.347Z,21.93
2023-01-20T16:21:53.933Z,23.97
2023-01-20T16:24:56.540Z,21.50
2023-01-20T16:28:00.024Z,24.73
2023-01-20T16:31:02.642Z,23.33
2023-01-20T16:34:07.827Z,24.67
2023-01-20T16:37:14.023Z,27.23
2023-01-20T16:40:19.750Z,27.53
2023-01-20T16:43:24.094Z,24.63
2023-01-20T16:46:29.197Z,26.87
2023-01-20T16:49:33.129Z,24.73
2023-01-20T16:52:35.888Z,28.87
2023-01-20T16:55:38.972Z,27.03
2023-01-20T16:58:41.697Z,34.43
2023-01-20T17:01:44.590Z,31.57
2023-01-20T17:04:48.543Z,25.93
2023-01-20T17:07:51.265Z,25.63
2023-01-20T17:10:53.853Z,23.57
2023-01-20T17:13:56.960Z,32.97
2023-01-20T17:16:59.990Z,30.10
2023-01-20T17:20:04.136Z,28.10
2023-01-20T17:23:06.888Z,25.90
2023-01-20T17:26:10.554Z,23.03
2023-01-20T17:29:13.182Z,25.20
2023-01-20T17:32:16.010Z,25.47
2023-01-20T17:35:20.085Z,24.33
2023-01-20T17:38:23.405Z,25.03
2023-01-20T17:41:26.172Z,44.50
2023-01-20T17:44:28.771Z,36.43
2023-01-20T17:47:31.674Z,27.77
2023-01-20T17:50:35.637Z,24.37
2023-01-20T17:53:38.322Z,43.63
2023-01-20T17:56:40.967Z,31.43
2023-01-20T17:59:43.571Z,41.33
2023-01-20T18:02:46.182Z,29.47
2023-01-20T18:05:53.327Z,32.57
2023-01-20T18:08:57.325Z,26.90
2023-01-20T18:12:00.035Z,26.10
2023-01-20T18:15:02.782Z,26.90
2023-01-20T18:18:05.481Z,30.57
2023-01-20T18:21:10.622Z,25.87
2023-01-20T18:24:13.649Z,28.50
2023-01-20T18:27:18.672Z,29.90
2023-01-20T18:30:21.429Z,28.17
2023-01-20T18:33:25.146Z,28.33
2023-01-20T18:36:31.100Z,30.83
2023-01-20T18:39:34.560Z,31.70
2023-01-20T18:42:37.274Z,27.07
2023-01-20T18:45:39.941Z,35.73
2023-01-20T18:48:45.767Z,33.80
2023-01-20T18:51:49.767Z,32.90
2023-01-20T18:54:52.341Z,33.87
2023-01-20T18:57:54.917Z,27.13
2023-01-20T19:01:03.387Z,29.93
2023-01-20T19:04:08.048Z,31.63
2023-01-20T19:07:11.973Z,39.23
2023-01-20T19:10:14.913Z,38.90
2023-01-20T19:13:17.591Z,41.93
2023-01-20T19:16:22.079Z,44.13
2023-01-20T19:19:24.794Z,65.53
2023-01-20T19:22:28.847Z,41.53
2023-01-20T19:25:31.716Z,36.50
2023-01-20T19:28:35.019Z,39.70
2023-01-20T19:31:40.264Z,32.17
2023-01-20T19:34:44.961Z,36.27
2023-01-20T19:37:49.020Z,38.33
2023-01-20T19:40:51.617Z,38.37
2023-01-20T19:43:56.970Z,46.53
2023-01-20T19:47:04.057Z,36.53
2023-01-20T19:50:07.488Z,34.60
2023-01-20T19:53:11.421Z,41.73
2023-01-20T19:56:16.252Z,38.03
2023-01-20T19:59:18.986Z,35.87
2023-01-20T20:02:21.754Z,35.17
2023-01-20T20:05:24.470Z,29.33
2023-01-20T20:08:28.547Z,35.97
2023-01-20T20:11:32.252Z,39.03
2023-01-20T20:14:35.153Z,62.87
2023-01-20T20:17:37.762Z,57.70
2023-01-20T20:20:40.335Z,47.40
2023-01-20T20:23:44.263Z,37.70
2023-01-20T20:26:48.041Z,31.83
2023-01-20T20:29:50.675Z,31.97
2023-01-20T20:32:53.378Z,31.77
2023-01-20T20:35:55.950Z,34.17
2023-01-20T20:39:01.000Z,35.10
2023-01-20T20:42:03.767Z,35.27
2023-01-20T20:45:07.374Z,36.37
2023-01-20T20:48:10.679Z,35.73
2023-01-20T20:51:15.761Z,34.77
2023-01-20T20:54:19.901Z,36.80
2023-01-20T20:57:22.524Z,41.60
2023-01-20T21:00:28.103Z,40.90
2023-01-20T21:03:30.866Z,31.47
2023-01-20T21:06:34.159Z,31.87
2023-01-20T21:09:38.113Z,31.23
2023-01-20T21:12:40.900Z,30.17
2023-01-20T21:15:43.601Z,30.80
2023-01-20T21:18:46.215Z,32.60
2023-01-20T21:21:48.802Z,35.10
2023-01-20T21:24:52.710Z,33.40
2023-01-20T21:27:55.345Z,39.33
2023-01-20T21:30:57.974Z,31.80
2023-01-20T21:34:01.627Z,57.03
2023-01-20T21:37:04.297Z,72.90
2023-01-20T21:40:09.454Z,62.13
2023-01-20T21:43:29.451Z,47.30
2023-01-20T21:46:35.877Z,43.80
2023-01-20T21:49:57.456Z,41.47
2023-01-20T21:53:00.033Z,43.00
2023-01-20T21:56:04.154Z,40.93
2023-01-20T21:59:07.526Z,34.47
2023-01-20T22:02:12.289Z,37.33
2023-01-20T22:05:15.089Z,34.97
2023-01-20T22:08:17.696Z,32.00
2023-01-20T22:11:21.764Z,34.20
2023-01-20T22:14:24.372Z,32.50
2023-01-20T22:17:27.100Z,36.03
2023-01-20T22:20:30.150Z,32.40
2023-01-20T22:23:33.264Z,33.07
2023-01-20T22:26:37.345Z,32.07
2023-01-20T22:29:40.024Z,35.83
2023-01-20T22:32:42.601Z,34.67
2023-01-20T22:35:45.208Z,36.57
2023-01-20T22:38:49.952Z,34.97
2023-01-20T22:41:54.044Z,32.53
2023-01-20T22:44:56.749Z,31.73
2023-01-20T22:47:59.324Z,37.10
2023-01-20T22:51:05.991Z,32.40
2023-01-20T22:54:10.616Z,35.70
2023-01-20T22:57:14.561Z,36.57
2023-01-20T23:00:18.951Z,32.70
2023-01-20T23:03:21.835Z,31.47
2023-01-20T23:06:25.951Z,41.93
2023-01-20T23:09:28.738Z,49.83
2023-01-20T23:12:32.755Z,48.87
2023-01-20T23:15:35.375Z,39.80
2023-01-20T23:18:38.075Z,36.23
2023-01-20T23:21:40.801Z,41.50
2023-01-20T23:24:43.397Z,46.30
2023-01-20T23:27:47.343Z,38.10
2023-01-20T23:30:49.938Z,53.57
2023-01-20T23:33:54.796Z,60.47
2023-01-20T23:36:57.710Z,44.13
2023-01-20T23:40:00.294Z,41.57
2023-01-20T23:43:04.262Z,40.67
2023-01-20T23:46:07.921Z,37.90
2023-01-20T23:49:10.529Z,35.40
2023-01-20T23:52:13.518Z,35.23
2023-01-20T23:55:16.196Z,36.87
2023-01-20T23:58:20.117Z,35.73
